createdAt,value
2022-08-20T00:00:02.370Z,20.33
2022-08-20T00:02:09.977Z,20.28
2022-08-20T00:04:15.003Z,20.27
2022-08-20T00:06:26.052Z,20.29
2022-08-20T00:08:32.153Z,20.26
2022-08-20T00:10:39.977Z,20.28
2022-08-20T00:12:47.594Z,20.30
2022-08-20T00:14:52.615Z,20.23
2022-08-20T00:16:57.551Z,20.24
2022-08-20T00:19:06.778Z,20.21
2022-08-20T00:21:18.916Z,20.15
2022-08-20T00:23:27.782Z,20.18
2022-08-20T00:25:32.957Z,20.13
2022-08-20T00:27:37.967Z,20.11
2022-08-20T00:29:42.785Z,20.13
2022-08-20T00:31:47.695Z,20.15
2022-08-20T00:33:53.464Z,20.16
2022-08-20T00:36:06.542Z,20.18
2022-08-20T00:38:11.650Z,20.19
2022-08-20T00:40:24.516Z,20.21
2022-08-20T00:42:29.507Z,20.21
2022-08-20T00:44:34.590Z,20.19
2022-08-20T00:46:39.737Z,20.15
2022-08-20T00:48:47.872Z,20.15
2022-08-20T00:50:53.030Z,20.16
2022-08-20T00:52:58.928Z,20.12
2022-08-20T00:55:05.917Z,20.12
2022-08-20T00:57:19.877Z,20.13
2022-08-20T00:59:28.419Z,20.15
2022-08-20T01:01:34.179Z,20.15
2022-08-20T01:03:58.330Z,20.20
2022-08-20T01:06:03.609Z,20.19
2022-08-20T01:08:09.422Z,20.17
2022-08-20T01:10:19.388Z,20.13
2022-08-20T01:12:28.033Z,20.11
2022-08-20T01:14:36.684Z,20.07
2022-08-20T01:16:41.677Z,20.09
2022-08-20T01:18:48.405Z,20.07
2022-08-20T01:20:57.184Z,20.05
2022-08-20T01:23:20.482Z,20.04
2022-08-20T01:25:34.355Z,19.97
2022-08-20T01:27:43.010Z,19.97
2022-08-20T01:29:49.125Z,19.95
2022-08-20T01:32:01.216Z,19.96
2022-08-20T01:34:08.388Z,19.95
2022-08-20T01:36:14.607Z,19.94
2022-08-20T01:38:20.240Z,19.93
2022-08-20T01:40:46.471Z,19.91
2022-08-20T01:42:59.479Z,19.85
2022-08-20T01:45:04.794Z,19.86
2022-08-20T01:47:16.946Z,19.86
2022-08-20T01:49:26.323Z,19.85
2022-08-20T01:51:33.096Z,19.89
2022-08-20T01:53:41.763Z,19.95
2022-08-20T01:55:46.747Z,19.98
2022-08-20T01:57:54.468Z,20.02
2022-08-20T01:59:59.364Z,20.04
2022-08-20T02:02:05.518Z,20.04
2022-08-20T02:04:15.178Z,20.05
2022-08-20T02:06:25.055Z,20.05
2022-08-20T02:08:31.181Z,20.05
2022-08-20T02:10:37.287Z,20.04
2022-08-20T02:12:42.435Z,20.06
2022-08-20T02:14:53.925Z,20.07
2022-08-20T02:17:00.627Z,20.08
2022-08-20T02:19:09.515Z,20.07
2022-08-20T02:21:14.439Z,20.05
2022-08-20T02:23:19.272Z,20.08
2022-08-20T02:25:27.153Z,20.13
2022-08-20T02:27:33.447Z,20.11
2022-08-20T02:29:39.755Z,20.10
2022-08-20T02:32:24.405Z,20.09
2022-08-20T02:34:22.864Z,20.07
2022-08-20T02:36:28.352Z,20.06
2022-08-20T02:38:35.029Z,20.03
2022-08-20T02:40:40.675Z,20.01
2022-08-20T02:42:47.892Z,20.03
2022-08-20T02:44:54.154Z,20.04
2022-08-20T02:47:01.749Z,20.05
2022-08-20T02:49:07.140Z,20.06
2022-08-20T02:51:12.543Z,20.05
2022-08-20T02:53:17.867Z,20.04
2022-08-20T02:55:27.032Z,20.05
2022-08-20T02:57:33.328Z,20.05
2022-08-20T02:59:38.930Z,20.03
2022-08-20T03:01:43.799Z,20.01
2022-08-20T03:03:51.303Z,20.00
2022-08-20T03:05:58.660Z,19.99
2022-08-20T03:08:03.544Z,19.99
2022-08-20T03:10:09.361Z,20.00
2022-08-20T03:12:14.761Z,20.01
2022-08-20T03:14:19.822Z,20.02
2022-08-20T03:16:24.634Z,20.00
2022-08-20T03:18:32.407Z,20.02
2022-08-20T03:20:40.145Z,20.01
2022-08-20T03:22:45.902Z,20.04
2022-08-20T03:24:50.745Z,20.01
2022-08-20T03:26:58.819Z,20.02
2022-08-20T03:29:03.688Z,19.98
2022-08-20T03:31:08.804Z,19.95
2022-08-20T03:33:13.674Z,19.95
2022-08-20T03:35:20.918Z,19.95
2022-08-20T03:37:28.353Z,19.98
2022-08-20T03:39:33.379Z,20.01
2022-08-20T03:41:38.651Z,20.04
2022-08-20T03:43:43.642Z,20.04
2022-08-20T03:45:49.622Z,20.03
2022-08-20T03:47:55.400Z,20.06
2022-08-20T03:50:01.749Z,20.05
2022-08-20T03:52:07.890Z,20.04
2022-08-20T03:54:20.351Z,20.07
2022-08-20T03:56:25.245Z,20.06
2022-08-20T03:58:35.415Z,20.06
2022-08-20T04:00:44.529Z,20.03
2022-08-20T04:02:49.577Z,20.02
2022-08-20T04:04:55.186Z,20.00
2022-08-20T04:07:00.027Z,19.98
2022-08-20T04:09:04.958Z,19.99
2022-08-20T04:11:13.515Z,20.02
2022-08-20T04:13:20.845Z,20.02
2022-08-20T04:15:28.485Z,20.00
2022-08-20T04:17:33.574Z,20.02
2022-08-20T04:19:39.006Z,20.00
2022-08-20T04:21:43.863Z,20.00
2022-08-20T04:23:48.705Z,20.00
2022-08-20T04:25:56.646Z,19.99
2022-08-20T04:28:06.229Z,19.98
2022-08-20T04:30:14.386Z,20.00
2022-08-20T04:32:19.318Z,19.99
2022-08-20T04:34:24.363Z,19.99
2022-08-20T04:36:29.535Z,19.95
2022-08-20T04:38:50.467Z,19.93
2022-08-20T04:40:58.340Z,19.95
2022-08-20T04:43:06.829Z,20.00
2022-08-20T04:45:12.609Z,20.01
2022-08-20T04:47:24.674Z,20.06
2022-08-20T04:49:40.890Z,20.02
2022-08-20T04:51:45.773Z,20.04
2022-08-20T04:53:51.930Z,20.03
2022-08-20T04:55:58.904Z,20.05
2022-08-20T04:58:10.839Z,20.07
2022-08-20T05:00:19.516Z,20.09
2022-08-20T05:02:25.373Z,20.09
2022-08-20T05:04:30.217Z,20.12
2022-08-20T05:06:35.557Z,20.17
2022-08-20T05:08:41.313Z,20.18
2022-08-20T05:10:47.034Z,20.20
2022-08-20T05:12:56.498Z,20.19
2022-08-20T05:15:04.943Z,20.18
2022-08-20T05:17:10.156Z,20.18
2022-08-20T05:19:16.003Z,20.15
2022-08-20T05:21:21.107Z,20.15
2022-08-20T05:23:25.699Z,20.12
2022-08-20T05:25:32.080Z,20.10
2022-08-20T05:27:37.033Z,20.13
2022-08-20T05:29:42.201Z,20.16
2022-08-20T05:31:49.353Z,20.13
2022-08-20T05:33:56.954Z,20.13
2022-08-20T05:36:02.418Z,20.15
2022-08-20T05:38:07.845Z,20.18
2022-08-20T05:40:16.478Z,20.22
2022-08-20T05:42:21.494Z,20.24
2022-08-20T05:44:26.371Z,20.25
2022-08-20T05:46:32.068Z,20.28
2022-08-20T05:48:39.689Z,20.32
2022-08-20T05:50:46.885Z,20.32
2022-08-20T05:52:51.712Z,20.37
2022-08-20T05:54:56.828Z,20.40
2022-08-20T05:57:01.441Z,20.39
2022-08-20T05:59:08.607Z,20.42
2022-08-20T06:01:13.521Z,20.44
2022-08-20T06:03:31.106Z,20.49
2022-08-20T06:05:38.685Z,20.51
2022-08-20T06:07:43.929Z,20.55
2022-08-20T06:09:48.809Z,20.62
2022-08-20T06:11:53.559Z,20.57
2022-08-20T06:14:03.987Z,20.54
2022-08-20T06:16:09.310Z,20.48
2022-08-20T06:18:28.451Z,20.52
2022-08-20T06:20:33.827Z,20.51
2022-08-20T06:22:41.389Z,20.56
2022-08-20T06:24:46.516Z,20.46
2022-08-20T06:26:51.204Z,20.35
2022-08-20T06:28:56.274Z,20.32
2022-08-20T06:31:01.121Z,20.39
2022-08-20T06:33:06.260Z,20.42
2022-08-20T06:35:11.700Z,20.38
2022-08-20T06:37:18.769Z,20.44
2022-08-20T06:39:27.055Z,20.45
2022-08-20T06:41:37.049Z,20.56
2022-08-20T06:43:42.077Z,20.71
2022-08-20T06:45:46.997Z,20.84
2022-08-20T06:47:51.923Z,20.84
2022-08-20T06:49:56.851Z,20.88
2022-08-20T06:52:01.702Z,20.99
2022-08-20T06:54:07.238Z,21.05
2022-08-20T06:56:14.633Z,21.15
2022-08-20T06:58:36.238Z,21.18
2022-08-20T07:00:44.656Z,21.17
2022-08-20T07:02:49.772Z,21.18
2022-08-20T07:04:55.521Z,21.10
2022-08-20T07:07:00.454Z,21.03
2022-08-20T07:09:05.369Z,21.01
2022-08-20T07:11:10.385Z,21.07
2022-08-20T07:13:18.358Z,21.12
2022-08-20T07:15:25.943Z,21.15
2022-08-20T07:17:30.906Z,21.13
2022-08-20T07:19:36.077Z,21.23
2022-08-20T07:21:40.733Z,21.12
2022-08-20T07:23:46.019Z,21.04
2022-08-20T07:25:51.358Z,21.21
2022-08-20T07:27:56.344Z,21.34
2022-08-20T07:30:16.198Z,21.48
2022-08-20T07:32:39.606Z,21.49
2022-08-20T07:34:46.583Z,21.69
2022-08-20T07:36:53.224Z,21.88
2022-08-20T07:39:05.865Z,22.04
2022-08-20T07:41:15.004Z,22.04
2022-08-20T07:43:21.602Z,22.21
2022-08-20T07:45:29.872Z,22.13
2022-08-20T07:47:36.256Z,22.25
2022-08-20T07:49:41.757Z,22.25
2022-08-20T07:51:47.142Z,22.13
2022-08-20T07:53:54.302Z,22.13
2022-08-20T07:56:00.307Z,22.14
2022-08-20T07:58:13.487Z,22.11
2022-08-20T08:00:21.290Z,22.16
2022-08-20T08:02:29.259Z,22.19
2022-08-20T08:04:34.730Z,22.20
2022-08-20T08:06:45.508Z,21.92
2022-08-20T08:08:50.818Z,21.66
2022-08-20T08:11:00.628Z,21.68
2022-08-20T08:13:08.563Z,21.81
2022-08-20T08:15:17.745Z,21.91
2022-08-20T08:17:22.726Z,21.97
2022-08-20T08:19:38.945Z,21.88
2022-08-20T08:21:44.481Z,21.94
2022-08-20T08:23:50.321Z,22.00
2022-08-20T08:25:56.292Z,22.07
2022-08-20T08:28:03.333Z,22.00
2022-08-20T08:30:10.153Z,22.02
2022-08-20T08:32:15.543Z,22.10
2022-08-20T08:34:20.159Z,22.08
2022-08-20T08:36:27.940Z,22.06
2022-08-20T08:38:34.429Z,22.02
2022-08-20T08:40:39.321Z,22.00
2022-08-20T08:42:58.377Z,22.06
2022-08-20T08:45:04.747Z,22.21
2022-08-20T08:47:18.438Z,22.40
2022-08-20T08:49:37.566Z,22.51
2022-08-20T08:51:50.264Z,22.64
2022-08-20T08:53:57.306Z,22.86
2022-08-20T08:56:02.953Z,23.00
2022-08-20T08:58:17.353Z,23.11
2022-08-20T09:00:24.992Z,23.29
2022-08-20T09:02:31.592Z,23.42
2022-08-20T09:04:40.573Z,23.42
2022-08-20T09:06:52.041Z,23.48
2022-08-20T09:09:01.138Z,23.54
2022-08-20T09:11:07.627Z,23.50
2022-08-20T09:13:12.444Z,23.60
2022-08-20T09:15:17.349Z,23.76
2022-08-20T09:17:24.130Z,23.80
2022-08-20T09:19:29.076Z,23.97
2022-08-20T09:21:33.977Z,24.10
2022-08-20T09:23:41.503Z,24.10
2022-08-20T09:25:46.415Z,24.07
2022-08-20T09:27:51.054Z,24.00
2022-08-20T09:29:56.106Z,24.02
2022-08-20T09:32:07.793Z,24.15
2022-08-20T09:34:14.109Z,24.01
2022-08-20T09:36:29.037Z,23.90
2022-08-20T09:38:37.576Z,23.86
2022-08-20T09:40:45.092Z,23.92
2022-08-20T09:42:50.160Z,23.87
2022-08-20T09:44:55.628Z,23.89
2022-08-20T09:47:00.499Z,23.75
2022-08-20T09:49:05.401Z,23.80
2022-08-20T09:51:13.812Z,23.84
2022-08-20T09:53:19.048Z,23.76
2022-08-20T09:55:27.582Z,23.71
2022-08-20T09:57:35.330Z,23.70
2022-08-20T09:59:41.914Z,23.73
2022-08-20T10:01:47.013Z,23.73
2022-08-20T10:03:52.718Z,23.55
2022-08-20T10:05:57.608Z,23.38
2022-08-20T10:08:02.537Z,23.40
2022-08-20T10:10:08.052Z,23.36
2022-08-20T10:12:12.937Z,23.38
2022-08-20T10:14:20.488Z,23.41
2022-08-20T10:16:25.330Z,23.48
2022-08-20T10:18:30.284Z,23.56
2022-08-20T10:20:35.743Z,23.70
2022-08-20T10:22:40.971Z,23.85
2022-08-20T10:24:45.991Z,23.88
2022-08-20T10:26:52.258Z,24.08
2022-08-20T10:28:57.111Z,24.31
2022-08-20T10:31:04.795Z,24.51
2022-08-20T10:33:09.680Z,24.73
2022-08-20T10:35:14.556Z,24.93
2022-08-20T10:37:21.492Z,24.83
2022-08-20T10:39:26.512Z,24.61
2022-08-20T10:41:39.051Z,24.63
2022-08-20T10:43:44.232Z,24.75
2022-08-20T10:45:48.808Z,24.77
2022-08-20T10:47:56.354Z,25.01
2022-08-20T10:50:03.252Z,25.16
2022-08-20T10:52:08.593Z,25.20
2022-08-20T10:54:13.560Z,25.14
2022-08-20T10:56:18.388Z,25.14
2022-08-20T10:58:24.141Z,25.26
2022-08-20T11:00:29.357Z,25.37
2022-08-20T11:02:34.158Z,25.47
2022-08-20T11:04:43.634Z,25.53
2022-08-20T11:06:48.505Z,25.42
2022-08-20T11:08:53.136Z,25.53
2022-08-20T11:10:57.924Z,25.61
2022-08-20T11:13:03.088Z,25.73
2022-08-20T11:15:09.242Z,25.87
2022-08-20T11:17:15.126Z,25.92
2022-08-20T11:19:19.937Z,26.06
2022-08-20T11:21:27.424Z,25.85
2022-08-20T11:23:32.237Z,25.81
2022-08-20T11:25:38.219Z,25.91
2022-08-20T11:27:46.514Z,25.95
2022-08-20T11:29:51.655Z,26.00
2022-08-20T11:31:56.531Z,26.13
2022-08-20T11:34:01.105Z,26.14
2022-08-20T11:36:06.336Z,26.20
2022-08-20T11:38:14.099Z,26.32
2022-08-20T11:40:19.091Z,26.41
2022-08-20T11:42:23.972Z,26.42
2022-08-20T11:44:28.794Z,26.58
2022-08-20T11:46:33.685Z,26.84
2022-08-20T11:48:38.583Z,26.96
2022-08-20T11:50:43.653Z,26.97
2022-08-20T11:52:48.259Z,26.82
2022-08-20T11:54:55.751Z,26.77
2022-08-20T11:57:01.116Z,26.63
2022-08-20T11:59:05.995Z,26.65
2022-08-20T12:01:10.874Z,26.70
2022-08-20T12:03:15.553Z,26.70
2022-08-20T12:05:21.247Z,26.74
2022-08-20T12:07:28.312Z,26.69
2022-08-20T12:09:33.139Z,26.45
2022-08-20T12:11:40.623Z,26.48
2022-08-20T12:13:47.323Z,26.18
2022-08-20T12:15:53.481Z,25.87
2022-08-20T12:17:58.965Z,25.74
2022-08-20T12:20:07.250Z,25.60
2022-08-20T12:22:23.719Z,25.39
2022-08-20T12:24:29.961Z,25.31
2022-08-20T12:26:34.772Z,25.14
2022-08-20T12:28:42.643Z,25.16
2022-08-20T12:30:47.479Z,25.07
2022-08-20T12:32:53.076Z,25.08
2022-08-20T12:34:58.355Z,25.01
2022-08-20T12:37:05.276Z,24.66
2022-08-20T12:39:10.276Z,24.33
2022-08-20T12:41:14.923Z,24.12
2022-08-20T12:43:24.660Z,23.88
2022-08-20T12:45:33.009Z,23.67
2022-08-20T12:47:39.772Z,23.75
2022-08-20T12:49:46.409Z,23.73
2022-08-20T12:51:51.321Z,23.66
2022-08-20T12:53:56.295Z,23.70
2022-08-20T12:56:02.590Z,23.57
2022-08-20T12:58:10.494Z,23.37
2022-08-20T13:00:20.395Z,23.10
2022-08-20T13:02:29.031Z,23.05
2022-08-20T13:04:33.856Z,23.06
2022-08-20T13:06:38.869Z,23.11
2022-08-20T13:08:43.754Z,23.04
2022-08-20T13:10:48.562Z,23.16
2022-08-20T13:12:54.236Z,23.17
2022-08-20T13:14:59.120Z,23.21
2022-08-20T13:17:05.062Z,23.41
2022-08-20T13:19:14.155Z,23.45
2022-08-20T13:21:23.903Z,23.67
2022-08-20T13:23:29.022Z,23.92
2022-08-20T13:25:34.771Z,24.01
2022-08-20T13:27:40.616Z,24.26
2022-08-20T13:29:50.949Z,24.51
2022-08-20T13:31:57.951Z,24.78
2022-08-20T13:34:02.923Z,25.04
2022-08-20T13:36:10.501Z,25.05
2022-08-20T13:38:15.860Z,25.12
2022-08-20T13:40:21.396Z,25.13
2022-08-20T13:42:26.586Z,25.23
2022-08-20T13:44:33.021Z,25.32
2022-08-20T13:46:38.233Z,25.33
2022-08-20T13:48:43.140Z,25.34
2022-08-20T13:50:48.061Z,25.16
2022-08-20T13:52:56.330Z,25.11
2022-08-20T13:55:01.765Z,25.06
2022-08-20T13:57:13.705Z,25.14
2022-08-20T13:59:18.552Z,25.08
2022-08-20T14:01:23.266Z,24.93
2022-08-20T14:03:28.113Z,24.96
2022-08-20T14:05:34.117Z,25.05
2022-08-20T14:07:39.228Z,25.13
2022-08-20T14:09:50.008Z,25.18
2022-08-20T14:11:54.959Z,25.17
2022-08-20T14:13:59.810Z,25.14
2022-08-20T14:16:04.635Z,25.02
2022-08-20T14:18:10.173Z,24.87
2022-08-20T14:20:18.543Z,24.80
2022-08-20T14:22:23.657Z,24.57
2022-08-20T14:24:28.558Z,24.32
2022-08-20T14:26:36.041Z,24.39
2022-08-20T14:28:40.867Z,24.28
2022-08-20T14:30:46.559Z,24.13
2022-08-20T14:32:58.115Z,24.13
2022-08-20T14:35:03.053Z,24.20
2022-08-20T14:37:19.265Z,24.15
2022-08-20T14:39:26.657Z,23.89
2022-08-20T14:41:31.470Z,23.98
2022-08-20T14:43:38.924Z,24.23
2022-08-20T14:45:44.269Z,24.44
2022-08-20T14:47:53.863Z,24.43
2022-08-20T14:50:04.759Z,24.53
2022-08-20T14:52:09.884Z,24.63
2022-08-20T14:54:14.817Z,24.77
2022-08-20T14:56:20.002Z,24.90
2022-08-20T14:58:24.834Z,25.02
2022-08-20T15:00:34.766Z,25.02
2022-08-20T15:02:40.487Z,25.04
2022-08-20T15:04:52.265Z,25.04
2022-08-20T15:07:02.191Z,25.22
2022-08-20T15:09:15.937Z,25.40
2022-08-20T15:11:20.781Z,25.46
2022-08-20T15:13:25.609Z,25.38
2022-08-20T15:15:31.287Z,25.41
2022-08-20T15:17:38.766Z,25.32
2022-08-20T15:19:43.772Z,25.28
2022-08-20T15:21:48.704Z,25.26
2022-08-20T15:23:53.238Z,25.28
2022-08-20T15:25:58.160Z,25.17
2022-08-20T15:28:04.811Z,25.06
2022-08-20T15:30:13.124Z,24.96
2022-08-20T15:32:18.306Z,24.97
2022-08-20T15:34:25.783Z,24.91
2022-08-20T15:36:30.624Z,24.82
2022-08-20T15:38:35.785Z,24.70
2022-08-20T15:40:40.661Z,24.55
2022-08-20T15:42:46.546Z,24.39
2022-08-20T15:44:52.357Z,24.04
2022-08-20T15:46:57.261Z,23.88
2022-08-20T15:49:01.957Z,23.72
2022-08-20T15:51:23.706Z,23.63
2022-08-20T15:53:36.387Z,23.47
2022-08-20T15:56:00.414Z,23.45
2022-08-20T15:58:16.995Z,23.42
2022-08-20T16:00:24.334Z,23.56
2022-08-20T16:02:55.161Z,23.55
2022-08-20T16:05:17.280Z,23.49
2022-08-20T16:07:32.205Z,23.40
2022-08-20T16:09:56.432Z,23.28
2022-08-20T16:12:08.682Z,23.14
2022-08-20T16:14:18.729Z,23.21
2022-08-20T16:16:28.518Z,23.16
2022-08-20T16:18:37.601Z,23.05
2022-08-20T16:20:47.970Z,23.03
2022-08-20T16:22:55.735Z,23.03
2022-08-20T16:25:01.698Z,23.11
2022-08-20T16:27:17.281Z,23.19
2022-08-20T16:29:22.781Z,23.09
2022-08-20T16:31:33.523Z,23.11
2022-08-20T16:33:52.882Z,23.09
2022-08-20T16:36:02.221Z,23.16
2022-08-20T16:38:21.360Z,23.08
2022-08-20T16:40:30.220Z,23.15
2022-08-20T16:42:41.244Z,23.16
2022-08-20T16:44:51.111Z,23.30
2022-08-20T16:47:00.676Z,23.35
2022-08-20T16:49:18.593Z,23.29
2022-08-20T16:51:28.229Z,23.30
2022-08-20T16:53:35.956Z,23.43
2022-08-20T16:55:42.119Z,23.46
2022-08-20T16:57:47.873Z,23.50
2022-08-20T17:00:13.379Z,23.55
2022-08-20T17:02:22.451Z,23.58
2022-08-20T17:04:27.284Z,23.58
2022-08-20T17:06:38.304Z,23.57
2022-08-20T17:08:51.624Z,23.62
2022-08-20T17:11:01.374Z,23.65
2022-08-20T17:13:22.225Z,23.69
2022-08-20T17:15:31.284Z,23.71
2022-08-20T17:17:38.445Z,23.73
2022-08-20T17:19:43.315Z,23.77
2022-08-20T17:21:50.218Z,23.87
2022-08-20T17:24:01.671Z,23.94
2022-08-20T17:26:19.523Z,23.97
2022-08-20T17:28:26.037Z,23.98
2022-08-20T17:30:39.646Z,24.05
2022-08-20T17:32:57.419Z,24.09
2022-08-20T17:35:05.422Z,24.14
2022-08-20T17:37:13.563Z,24.16
2022-08-20T17:39:23.115Z,24.12
2022-08-20T17:41:32.272Z,24.05
2022-08-20T17:43:43.398Z,24.03
2022-08-20T17:45:48.970Z,23.96
2022-08-20T17:47:54.603Z,23.90
2022-08-20T17:50:04.381Z,23.86
2022-08-20T17:52:18.987Z,23.80
2022-08-20T17:54:35.445Z,23.79
2022-08-20T17:56:43.690Z,23.72
2022-08-20T17:58:54.862Z,23.71
2022-08-20T18:01:02.255Z,23.70
2022-08-20T18:03:17.599Z,23.71
2022-08-20T18:05:24.577Z,23.66
2022-08-20T18:07:33.967Z,23.62
2022-08-20T18:09:46.663Z,23.60
2022-08-20T18:11:59.034Z,23.58
2022-08-20T18:14:29.532Z,23.50
2022-08-20T18:16:45.641Z,23.41
2022-08-20T18:18:59.316Z,23.37
2022-08-20T18:21:34.406Z,23.33
2022-08-20T18:23:41.507Z,23.32
2022-08-20T18:26:00.683Z,23.32
2022-08-20T18:28:11.485Z,23.26
2022-08-20T18:30:20.293Z,23.23
2022-08-20T18:32:34.271Z,23.18
2022-08-20T18:34:42.192Z,23.12
2022-08-20T18:36:57.179Z,23.10
2022-08-20T18:39:09.623Z,23.09
2022-08-20T18:41:31.878Z,23.09
2022-08-20T18:43:36.741Z,23.09
2022-08-20T18:45:41.677Z,23.07
2022-08-20T18:47:49.152Z,23.08
2022-08-20T18:50:15.773Z,23.08
2022-08-20T18:52:30.358Z,23.09
2022-08-20T18:54:35.905Z,23.10
2022-08-20T18:56:45.599Z,23.00
2022-08-20T18:59:00.539Z,22.96
2022-08-20T19:01:13.239Z,22.90
2022-08-20T19:03:23.135Z,22.88
2022-08-20T19:05:31.934Z,22.88
2022-08-20T19:07:43.155Z,22.88
2022-08-20T19:10:27.704Z,22.87
2022-08-20T19:13:08.724Z,22.85
2022-08-20T19:15:19.083Z,22.78
2022-08-20T19:17:33.706Z,22.76
2022-08-20T19:19:39.421Z,22.73
2022-08-20T19:21:44.996Z,22.68
2022-08-20T19:23:55.079Z,22.65
2022-08-20T19:26:02.985Z,22.62
2022-08-20T19:28:24.055Z,22.58
2022-08-20T19:30:35.329Z,22.53
2022-08-20T19:32:46.309Z,22.47
2022-08-20T19:34:54.850Z,22.41
2022-08-20T19:37:07.778Z,22.38
2022-08-20T19:39:18.895Z,22.34
2022-08-20T19:41:31.483Z,22.29
2022-08-20T19:43:45.239Z,22.29
2022-08-20T19:45:52.989Z,22.30
2022-08-20T19:48:08.232Z,22.34
2022-08-20T19:50:23.942Z,22.36
2022-08-20T19:52:36.035Z,22.31
2022-08-20T19:54:49.838Z,22.32
2022-08-20T19:56:58.530Z,22.32
2022-08-20T19:59:09.319Z,22.34
2022-08-20T20:01:19.807Z,22.35
2022-08-20T20:03:28.715Z,22.36
2022-08-20T20:05:33.909Z,22.36
2022-08-20T20:07:42.098Z,22.36
2022-08-20T20:09:56.246Z,22.37
2022-08-20T20:12:02.949Z,22.35
2022-08-20T20:14:14.558Z,22.35
2022-08-20T20:16:22.552Z,22.32
2022-08-20T20:18:30.727Z,22.30
2022-08-20T20:20:38.567Z,22.29
2022-08-20T20:23:06.773Z,22.27
2022-08-20T20:25:22.646Z,22.26
2022-08-20T20:27:29.524Z,22.22
2022-08-20T20:29:40.095Z,22.21
2022-08-20T20:31:52.178Z,22.20
2022-08-20T20:33:59.693Z,22.19
2022-08-20T20:36:06.855Z,22.18
2022-08-20T20:38:17.312Z,22.18
2022-08-20T20:40:28.118Z,22.16
2022-08-20T20:42:33.233Z,22.05
2022-08-20T20:44:41.701Z,21.90
2022-08-20T20:46:50.892Z,21.78
2022-08-20T20:48:58.255Z,21.69
2022-08-20T20:51:03.683Z,21.62
2022-08-20T20:53:08.622Z,21.59
2022-08-20T20:55:24.239Z,21.58
2022-08-20T20:57:36.448Z,21.55
2022-08-20T20:59:48.371Z,21.54
2022-08-20T21:01:53.403Z,21.45
2022-08-20T21:03:58.032Z,21.33
2022-08-20T21:06:02.910Z,21.23
2022-08-20T21:08:10.836Z,21.23
2022-08-20T21:10:16.333Z,21.25
2022-08-20T21:12:22.569Z,21.27
2022-08-20T21:14:27.417Z,21.28
2022-08-20T21:16:35.493Z,21.32
2022-08-20T21:18:41.119Z,21.35
2022-08-20T21:20:47.451Z,21.36
2022-08-20T21:22:52.491Z,21.39
2022-08-20T21:24:57.522Z,21.39
2022-08-20T21:27:04.040Z,21.37
2022-08-20T21:29:11.152Z,21.39
2022-08-20T21:31:16.135Z,21.39
2022-08-20T21:33:23.586Z,21.34
2022-08-20T21:35:28.885Z,21.31
2022-08-20T21:37:33.803Z,21.28
2022-08-20T21:39:38.662Z,21.27
2022-08-20T21:41:44.976Z,21.23
2022-08-20T21:43:49.827Z,21.23
2022-08-20T21:45:54.833Z,21.21
2022-08-20T21:48:01.244Z,21.19
2022-08-20T21:50:11.268Z,21.15
2022-08-20T21:52:16.690Z,21.12
2022-08-20T21:54:22.705Z,21.11
2022-08-20T21:56:27.625Z,21.14
2022-08-20T21:58:36.947Z,21.20
2022-08-20T22:00:58.214Z,21.24
2022-08-20T22:03:03.151Z,21.21
2022-08-20T22:05:11.511Z,21.20
2022-08-20T22:07:17.802Z,21.17
2022-08-20T22:09:24.887Z,21.17
2022-08-20T22:11:30.553Z,21.16
2022-08-20T22:13:36.862Z,21.12
2022-08-20T22:15:42.008Z,21.15
2022-08-20T22:17:46.638Z,21.15
2022-08-20T22:19:51.581Z,21.10
2022-08-20T22:21:59.531Z,21.09
2022-08-20T22:24:07.377Z,21.07
2022-08-20T22:26:13.135Z,21.06
2022-08-20T22:28:21.409Z,21.06
2022-08-20T22:30:30.390Z,21.02
2022-08-20T22:32:51.785Z,20.95
2022-08-20T22:34:57.139Z,20.90
2022-08-20T22:37:05.445Z,20.85
2022-08-20T22:39:11.016Z,20.79
2022-08-20T22:41:15.877Z,20.74
2022-08-20T22:43:21.841Z,20.67
2022-08-20T22:45:29.837Z,20.64
2022-08-20T22:47:34.646Z,20.56
2022-08-20T22:49:42.046Z,20.51
2022-08-20T22:51:47.587Z,20.50
2022-08-20T22:53:58.023Z,20.43
2022-08-20T22:56:03.014Z,20.34
2022-08-20T22:58:08.690Z,20.29
2022-08-20T23:00:21.069Z,20.23
2022-08-20T23:02:29.341Z,20.18
2022-08-20T23:04:37.768Z,20.20
2022-08-20T23:06:43.427Z,20.24
2022-08-20T23:08:48.340Z,20.23
2022-08-20T23:10:56.769Z,20.22
2022-08-20T23:13:01.677Z,20.17
2022-08-20T23:15:06.643Z,20.11
2022-08-20T23:17:17.664Z,20.12
2022-08-20T23:19:24.810Z,20.12
2022-08-20T23:21:30.012Z,20.03
2022-08-20T23:23:34.608Z,19.98
2022-08-20T23:25:39.496Z,19.94
2022-08-20T23:27:49.724Z,19.93
2022-08-20T23:29:54.551Z,19.98
2022-08-20T23:32:00.719Z,20.04
2022-08-20T23:34:05.611Z,20.05
2022-08-20T23:36:13.532Z,20.07
2022-08-20T23:38:24.197Z,20.11
2022-08-20T23:40:31.310Z,20.15
2022-08-20T23:42:36.359Z,20.13
2022-08-20T23:44:43.645Z,20.10
2022-08-20T23:46:49.233Z,20.10
2022-08-20T23:48:57.459Z,20.11
2022-08-20T23:51:02.443Z,20.13
2022-08-20T23:53:08.231Z,20.10
2022-08-20T23:55:13.396Z,20.01
2022-08-20T23:57:21.047Z,19.92
2022-08-20T23:59:26.062Z,19.83
